createdAt,value
2019-02-22T00:03:32.627Z,2.30
2019-02-22T00:08:37.984Z,2.60
2019-02-22T00:11:13.038Z,2.50
2019-02-22T00:13:46.874Z,2.50
2019-02-22T00:16:27.929Z,2.70
2019-02-22T00:19:08.465Z,2.50
2019-02-22T00:21:44.661Z,2.30
2019-02-22T00:24:29.296Z,2.30
2019-02-22T00:29:31.063Z,1.90
2019-02-22T00:32:03.204Z,2.70
2019-02-22T00:37:07.214Z,2.10
2019-02-22T00:39:38.877Z,2.10
2019-02-22T00:42:10.148Z,2.00
2019-02-22T00:44:41.953Z,1.80
2019-02-22T00:47:13.292Z,1.70
2019-02-22T00:49:44.583Z,1.90
2019-02-22T00:52:15.749Z,1.80
2019-02-22T00:54:47.125Z,1.80
2019-02-22T00:57:18.636Z,1.80
2019-02-22T00:59:51.337Z,1.80
2019-02-22T01:02:22.654Z,1.80
2019-02-22T01:04:54.099Z,1.70
2019-02-22T01:07:35.251Z,1.70
2019-02-22T01:10:06.685Z,1.70
2019-02-22T01:12:40.062Z,1.70
2019-02-22T01:15:12.342Z,1.70
2019-02-22T01:17:43.638Z,1.60
2019-02-22T01:20:15.027Z,1.80
2019-02-22T01:22:46.576Z,1.70
2019-02-22T01:25:18.819Z,1.60
2019-02-22T01:27:50.103Z,1.80
2019-02-22T01:30:21.410Z,1.50
2019-02-22T01:32:52.712Z,1.60
2019-02-22T01:37:56.779Z,1.40
2019-02-22T01:42:58.849Z,1.40
2019-02-22T01:45:30.221Z,2.10
2019-02-22T01:50:33.587Z,1.60
2019-02-22T01:53:05.079Z,1.50
2019-02-22T01:55:37.930Z,1.40
2019-02-22T02:01:13.030Z,1.30
2019-02-22T02:03:44.498Z,2.50
2019-02-22T02:06:15.852Z,1.00
2019-02-22T02:11:19.612Z,1.40
2019-02-22T02:16:22.505Z,1.50
2019-02-22T02:18:54.058Z,1.30
2019-02-22T02:21:25.418Z,1.10
2019-02-22T02:23:57.072Z,1.30
2019-02-22T02:29:02.430Z,1.20
2019-02-22T02:31:36.424Z,1.20
2019-02-22T02:36:45.289Z,1.40
2019-02-22T02:44:23.388Z,1.20
2019-02-22T02:46:54.791Z,1.30
2019-02-22T02:49:28.759Z,1.20
2019-02-22T02:54:32.671Z,0.90
2019-02-22T02:57:03.952Z,1.00
2019-02-22T03:02:26.618Z,1.00
2019-02-22T03:07:46.520Z,1.10
2019-02-22T03:10:35.551Z,0.70
2019-02-22T03:15:40.405Z,1.10
2019-02-22T03:18:19.589Z,0.80
2019-02-22T03:20:52.351Z,0.80
2019-02-22T03:23:29.558Z,0.50
2019-02-22T03:26:01.262Z,0.70
2019-02-22T03:29:16.626Z,-0.20
2019-02-22T03:31:58.318Z,0.20
2019-02-22T03:37:05.789Z,0.70
2019-02-22T03:39:42.589Z,0.10
2019-02-22T03:42:38.190Z,0.50
2019-02-22T03:50:35.841Z,0.10
2019-02-22T03:53:19.633Z,0.40
2019-02-22T03:58:21.639Z,0.90
2019-02-22T04:00:53.028Z,0.10
2019-02-22T04:03:24.773Z,0.30
2019-02-22T04:05:56.159Z,0.00
2019-02-22T04:08:27.599Z,-0.20
2019-02-22T04:10:58.988Z,0.40
2019-02-22T04:16:01.051Z,0.10
2019-02-22T04:18:32.495Z,0.00
2019-02-22T04:21:05.857Z,-0.40
2019-02-22T04:23:37.558Z,-0.10
2019-02-22T04:26:11.754Z,-0.20
2019-02-22T04:28:43.017Z,-0.20
2019-02-22T04:33:46.132Z,-0.60
2019-02-22T04:36:17.526Z,-0.40
2019-02-22T04:38:49.041Z,-0.50
2019-02-22T04:43:50.754Z,-0.10
2019-02-22T04:49:12.605Z,-0.10
2019-02-22T04:51:44.181Z,-0.30
2019-02-22T04:54:15.658Z,-0.50
2019-02-22T04:56:47.176Z,-0.50
2019-02-22T05:01:49.457Z,-0.80
2019-02-22T05:04:20.881Z,-0.50
2019-02-22T05:06:52.193Z,-0.30
2019-02-22T05:11:54.200Z,-0.90
2019-02-22T05:14:26.018Z,-0.70
2019-02-22T05:16:57.396Z,-0.40
2019-02-22T05:22:32.688Z,-0.90
2019-02-22T05:25:18.760Z,-0.70
2019-02-22T05:27:55.750Z,-0.70
2019-02-22T05:30:28.617Z,-0.70
2019-02-22T05:33:00.300Z,-1.10
2019-02-22T05:43:04.757Z,-0.50
2019-02-22T05:53:08.141Z,-0.60
2019-02-22T05:55:39.503Z,-1.10
2019-02-22T06:05:43.489Z,-1.00
2019-02-22T06:08:14.759Z,-1.00
2019-02-22T06:10:47.026Z,-0.90
2019-02-22T06:15:49.363Z,-0.60
2019-02-22T06:18:23.016Z,-0.40
2019-02-22T06:20:54.260Z,-1.00
2019-02-22T06:25:56.024Z,-0.90
2019-02-22T06:28:27.513Z,-1.10
2019-02-22T06:30:59.051Z,-1.20
2019-02-22T06:33:30.501Z,-1.10
2019-02-22T06:36:03.500Z,-1.10
2019-02-22T06:38:35.515Z,-0.90
2019-02-22T06:46:09.349Z,-0.40
2019-02-22T06:51:13.536Z,-0.10
2019-02-22T06:53:44.773Z,-0.20
2019-02-22T06:56:16.086Z,0.20
2019-02-22T06:58:48.642Z,0.60
2019-02-22T07:01:19.867Z,0.80
2019-02-22T07:03:51.573Z,0.60
2019-02-22T07:06:23.075Z,0.80
2019-02-22T07:08:54.344Z,0.80
2019-02-22T07:11:41.861Z,1.20
2019-02-22T07:16:45.143Z,1.30
2019-02-22T07:19:23.911Z,1.40
2019-02-22T07:21:55.353Z,1.50
2019-02-22T07:24:26.673Z,1.40
2019-02-22T07:29:28.874Z,1.80
2019-02-22T07:34:33.100Z,1.60
2019-02-22T07:42:08.059Z,2.30
2019-02-22T07:44:39.557Z,1.80
2019-02-22T07:47:11.059Z,1.40
2019-02-22T07:49:42.553Z,1.70
2019-02-22T07:52:13.950Z,2.00
2019-02-22T07:54:46.694Z,2.10
2019-02-22T07:57:18.128Z,2.20
2019-02-22T07:59:49.573Z,2.40
2019-02-22T08:02:20.842Z,2.00
2019-02-22T08:04:52.289Z,2.30
2019-02-22T08:07:24.005Z,2.30
2019-02-22T08:09:55.461Z,2.40
2019-02-22T08:12:26.893Z,2.50
2019-02-22T08:14:59.013Z,2.60
2019-02-22T08:17:32.210Z,2.60
2019-02-22T08:20:08.288Z,2.60
2019-02-22T08:22:42.740Z,2.60
2019-02-22T08:25:21.946Z,2.60
2019-02-22T08:27:55.029Z,2.50
2019-02-22T08:30:28.410Z,2.30
2019-02-22T08:33:00.134Z,2.60
2019-02-22T08:35:31.960Z,2.60
2019-02-22T08:38:04.499Z,2.60
2019-02-22T08:40:35.761Z,2.70
2019-02-22T08:43:07.242Z,2.60
2019-02-22T08:45:39.404Z,2.50
2019-02-22T08:48:11.412Z,2.40
2019-02-22T08:50:43.302Z,2.30
2019-02-22T08:53:14.825Z,2.10
2019-02-22T08:55:46.069Z,2.20
2019-02-22T08:58:17.475Z,2.30
2019-02-22T09:00:48.919Z,2.40
2019-02-22T09:03:27.777Z,2.40
2019-02-22T09:06:01.086Z,2.30
2019-02-22T09:08:32.779Z,2.30
2019-02-22T09:11:05.877Z,2.30
2019-02-22T09:13:43.690Z,2.30
2019-02-22T09:16:11.082Z,2.40
2019-02-22T09:18:42.866Z,2.40
2019-02-22T09:21:15.638Z,2.30
2019-02-22T09:23:46.889Z,2.30
2019-02-22T09:26:21.354Z,2.30
2019-02-22T09:28:55.718Z,2.20
2019-02-22T09:31:27.105Z,2.10
2019-02-22T09:33:59.574Z,2.10
2019-02-22T09:36:30.958Z,2.10
2019-02-22T09:39:04.126Z,2.10
2019-02-22T09:41:37.198Z,2.20
2019-02-22T09:44:08.830Z,2.30
2019-02-22T09:46:40.416Z,2.30
2019-02-22T09:49:14.268Z,2.30
2019-02-22T09:51:45.295Z,2.20
2019-02-22T09:54:16.586Z,2.10
2019-02-22T09:56:48.493Z,1.90
2019-02-22T09:59:20.081Z,1.90
2019-02-22T10:01:51.526Z,1.90
2019-02-22T10:04:22.912Z,2.10
2019-02-22T10:06:54.881Z,2.20
2019-02-22T10:09:26.124Z,2.20
2019-02-22T10:11:58.131Z,2.20
2019-02-22T10:14:31.092Z,2.10
2019-02-22T10:17:03.934Z,2.00
2019-02-22T10:19:36.857Z,2.00
2019-02-22T10:22:09.751Z,2.00
2019-02-22T10:24:41.564Z,2.00
2019-02-22T10:27:16.164Z,2.00
2019-02-22T10:29:47.537Z,1.90
2019-02-22T10:32:18.977Z,1.90
2019-02-22T10:34:50.384Z,2.00
2019-02-22T10:37:22.542Z,1.90
2019-02-22T10:39:55.549Z,1.90
2019-02-22T10:42:26.913Z,1.90
2019-02-22T10:45:02.011Z,1.80
2019-02-22T10:47:36.538Z,1.80
2019-02-22T10:50:13.329Z,1.90
2019-02-22T10:52:44.754Z,2.00
2019-02-22T10:55:16.237Z,2.00
2019-02-22T10:57:48.588Z,2.00
2019-02-22T11:00:20.427Z,2.00
2019-02-22T11:02:53.456Z,2.00
2019-02-22T11:05:24.787Z,1.90
2019-02-22T11:07:56.520Z,1.90
2019-02-22T11:10:28.064Z,2.00
2019-02-22T11:12:59.646Z,2.00
2019-02-22T11:15:33.000Z,2.00
2019-02-22T11:18:05.351Z,2.00
2019-02-22T11:20:38.219Z,2.00
2019-02-22T11:23:10.507Z,1.90
2019-02-22T11:25:41.795Z,1.80
2019-02-22T11:28:14.621Z,1.70
2019-02-22T11:30:45.926Z,1.60
2019-02-22T11:33:17.633Z,1.60
2019-02-22T11:35:49.019Z,1.40
2019-02-22T11:38:22.268Z,1.40
2019-02-22T11:40:53.808Z,1.40
2019-02-22T11:43:25.101Z,1.40
2019-02-22T11:46:03.517Z,1.50
2019-02-22T11:48:36.732Z,1.50
2019-02-22T11:51:09.758Z,1.50
2019-02-22T11:53:41.955Z,1.60
2019-02-22T11:56:13.440Z,1.60
2019-02-22T11:58:44.981Z,1.50
2019-02-22T12:01:17.108Z,1.50
2019-02-22T12:03:48.714Z,1.60
2019-02-22T12:06:20.596Z,1.60
2019-02-22T12:08:52.044Z,1.70
2019-02-22T12:11:23.401Z,1.70
2019-02-22T12:13:55.481Z,1.80
2019-02-22T12:16:27.274Z,1.80
2019-02-22T12:19:00.575Z,1.80
2019-02-22T12:21:32.194Z,1.70
2019-02-22T12:24:03.595Z,1.60
2019-02-22T12:26:36.033Z,1.60
2019-02-22T12:29:08.298Z,1.60
2019-02-22T12:31:40.800Z,1.50
2019-02-22T12:34:14.203Z,1.50
2019-02-22T12:36:47.234Z,1.40
2019-02-22T12:39:19.137Z,1.40
2019-02-22T12:41:53.697Z,1.40
2019-02-22T12:44:25.171Z,1.40
2019-02-22T12:46:58.081Z,1.40
2019-02-22T12:49:29.463Z,1.40
2019-02-22T12:52:01.699Z,1.30
2019-02-22T12:54:34.519Z,1.30
2019-02-22T12:57:05.997Z,1.30
2019-02-22T12:59:43.619Z,1.30
2019-02-22T13:02:17.908Z,1.30
2019-02-22T13:04:50.792Z,1.20
2019-02-22T13:07:27.910Z,1.20
2019-02-22T13:09:59.560Z,1.20
2019-02-22T13:12:38.058Z,1.10
2019-02-22T13:15:14.439Z,1.00
2019-02-22T13:17:46.398Z,1.00
2019-02-22T13:20:30.998Z,1.00
2019-02-22T13:23:02.722Z,1.00
2019-02-22T13:25:36.013Z,1.00
2019-02-22T13:28:08.108Z,0.90
2019-02-22T13:30:39.523Z,0.90
2019-02-22T13:33:11.034Z,0.90
2019-02-22T13:35:51.205Z,0.90
2019-02-22T13:38:22.915Z,1.00
2019-02-22T13:40:54.631Z,1.00
2019-02-22T13:43:26.034Z,1.00
2019-02-22T13:45:58.044Z,1.00
2019-02-22T13:48:30.322Z,1.00
2019-02-22T13:51:01.788Z,1.00
2019-02-22T13:53:33.821Z,1.00
2019-02-22T13:56:07.138Z,0.90
2019-02-22T13:58:38.733Z,0.90
2019-02-22T14:01:10.288Z,0.90
2019-02-22T14:03:41.679Z,0.90
2019-02-22T14:06:17.590Z,0.90
2019-02-22T14:08:49.140Z,0.80
2019-02-22T14:11:23.738Z,0.80
2019-02-22T14:13:58.758Z,0.80
2019-02-22T14:16:32.271Z,0.70
2019-02-22T14:22:14.186Z,0.60
2019-02-22T14:24:45.853Z,0.60
2019-02-22T14:27:18.358Z,0.60
2019-02-22T14:29:50.277Z,0.60
2019-02-22T14:32:22.384Z,0.70
2019-02-22T14:34:53.941Z,0.80
2019-02-22T14:37:25.756Z,0.90
2019-02-22T14:40:03.421Z,1.10
2019-02-22T14:42:33.285Z,1.20
2019-02-22T14:45:05.112Z,1.40
2019-02-22T14:47:38.592Z,1.60
2019-02-22T14:50:12.747Z,1.80
2019-02-22T14:52:57.613Z,1.90
2019-02-22T14:55:24.458Z,1.90
2019-02-22T14:57:55.913Z,2.00
2019-02-22T15:00:27.466Z,2.00
2019-02-22T15:02:59.344Z,2.00
2019-02-22T15:05:31.170Z,2.00
2019-02-22T15:08:04.269Z,2.10
2019-02-22T15:10:35.718Z,2.10
2019-02-22T15:13:07.504Z,2.10
2019-02-22T15:16:01.042Z,2.10
2019-02-22T15:18:31.944Z,2.20
2019-02-22T15:21:05.574Z,2.20
2019-02-22T15:23:38.808Z,2.30
2019-02-22T15:26:14.304Z,2.30
2019-02-22T15:28:46.097Z,2.20
2019-02-22T15:31:18.800Z,2.20
2019-02-22T15:33:50.966Z,2.20
2019-02-22T15:36:22.748Z,2.10
2019-02-22T15:38:57.212Z,2.10
2019-02-22T15:41:29.172Z,2.10
2019-02-22T15:44:01.975Z,2.10
2019-02-22T15:46:37.186Z,2.00
2019-02-22T15:49:10.237Z,1.90
2019-02-22T15:51:46.369Z,1.90
2019-02-22T15:54:17.893Z,1.90
2019-02-22T15:56:49.437Z,1.90
2019-02-22T15:59:21.310Z,1.80
2019-02-22T16:01:55.760Z,1.80
2019-02-22T16:05:00.588Z,1.70
2019-02-22T16:07:32.486Z,1.60
2019-02-22T16:10:05.504Z,1.60
2019-02-22T16:12:39.291Z,1.50
2019-02-22T16:15:11.684Z,1.50
2019-02-22T16:17:44.189Z,1.50
2019-02-22T16:20:15.978Z,1.40
2019-02-22T16:22:47.287Z,1.40
2019-02-22T16:25:20.110Z,1.30
2019-02-22T16:27:51.856Z,1.30
2019-02-22T16:30:24.438Z,1.30
2019-02-22T16:32:56.156Z,1.30
2019-02-22T16:35:27.713Z,1.20
2019-02-22T16:37:59.294Z,1.20
2019-02-22T16:40:32.347Z,1.20
2019-02-22T16:43:03.777Z,1.10
2019-02-22T16:45:36.116Z,1.10
2019-02-22T16:48:07.803Z,1.10
2019-02-22T16:50:39.746Z,1.00
2019-02-22T16:53:11.127Z,1.00
2019-02-22T16:55:43.029Z,0.90
2019-02-22T16:58:14.541Z,0.90
2019-02-22T17:00:45.921Z,0.90
2019-02-22T17:03:17.725Z,0.90
2019-02-22T17:05:49.524Z,0.90
2019-02-22T17:08:22.431Z,0.90
2019-02-22T17:10:55.511Z,0.80
2019-02-22T17:13:28.261Z,0.80
2019-02-22T17:16:01.456Z,0.80
2019-02-22T17:18:33.021Z,0.80
2019-02-22T17:21:04.518Z,0.70
2019-02-22T17:23:38.014Z,0.70
2019-02-22T17:26:12.685Z,0.70
2019-02-22T17:28:44.664Z,0.70
2019-02-22T17:31:18.169Z,0.60
2019-02-22T17:33:49.900Z,0.60
2019-02-22T17:36:27.141Z,0.60
2019-02-22T17:38:58.346Z,0.60
2019-02-22T17:41:30.071Z,0.60
2019-02-22T17:44:01.710Z,0.50
2019-02-22T17:46:33.600Z,0.50
2019-02-22T17:49:04.824Z,0.50
2019-02-22T17:51:37.617Z,0.40
2019-02-22T17:54:10.901Z,0.40
2019-02-22T17:56:42.402Z,0.40
2019-02-22T17:59:14.675Z,0.30
2019-02-22T18:01:46.550Z,0.30
2019-02-22T18:04:18.061Z,0.30
2019-02-22T18:06:49.605Z,0.20
2019-02-22T18:09:21.707Z,0.20
2019-02-22T18:11:54.746Z,0.20
2019-02-22T18:14:26.632Z,0.10
2019-02-22T18:17:07.930Z,0.10
2019-02-22T18:19:32.181Z,0.10
2019-02-22T18:22:03.858Z,0.10
2019-02-22T18:24:35.638Z,0.00
2019-02-22T18:27:07.962Z,0.00
2019-02-22T18:29:39.934Z,0.00
2019-02-22T18:32:11.890Z,0.00
2019-02-22T18:34:43.473Z,-0.10
2019-02-22T18:37:14.793Z,-0.10
2019-02-22T18:39:46.645Z,-0.10
2019-02-22T18:42:18.023Z,-0.20
2019-02-22T18:44:49.635Z,-0.20
2019-02-22T18:47:21.352Z,-0.20
2019-02-22T18:49:53.629Z,-0.30
2019-02-22T18:52:25.427Z,-0.30
2019-02-22T18:54:57.337Z,-0.30
2019-02-22T18:57:29.057Z,-0.30
2019-02-22T19:00:01.342Z,-0.30
2019-02-22T19:02:35.751Z,-0.30
2019-02-22T19:05:09.423Z,-0.40
2019-02-22T19:07:40.777Z,-0.40
2019-02-22T19:10:13.081Z,-0.40
2019-02-22T19:12:47.188Z,-0.40
2019-02-22T19:15:19.042Z,-0.40
2019-02-22T19:17:51.534Z,-0.40
2019-02-22T19:20:22.969Z,-0.50
2019-02-22T19:22:55.436Z,-0.50
2019-02-22T19:25:26.829Z,-0.50
2019-02-22T19:27:58.373Z,-0.60
2019-02-22T19:30:29.897Z,-0.60
2019-02-22T19:33:01.489Z,-0.60
2019-02-22T19:35:33.972Z,-0.60
2019-02-22T19:38:05.785Z,-0.70
2019-02-22T19:41:00.295Z,-0.70
2019-02-22T19:43:38.356Z,-0.80
2019-02-22T19:46:09.872Z,-0.80
2019-02-22T19:48:41.585Z,-0.90
2019-02-22T19:51:13.822Z,-0.90
2019-02-22T19:53:45.149Z,-1.00
2019-02-22T19:56:16.525Z,-1.00
2019-02-22T19:58:47.846Z,-1.00
2019-02-22T20:01:19.365Z,-1.00
2019-02-22T20:03:51.329Z,-1.00
2019-02-22T20:06:22.791Z,-1.00
2019-02-22T20:08:54.139Z,-1.00
2019-02-22T20:11:25.468Z,-1.10
2019-02-22T20:13:57.634Z,-1.10
2019-02-22T20:16:28.965Z,-1.10
2019-02-22T20:19:01.238Z,-1.20
2019-02-22T20:21:32.965Z,-1.20
2019-02-22T20:24:04.264Z,-1.30
2019-02-22T20:26:36.940Z,-1.30
2019-02-22T20:29:08.444Z,-1.30
2019-02-22T20:31:40.755Z,-1.30
2019-02-22T20:34:13.462Z,-1.40
2019-02-22T20:36:44.725Z,-1.40
2019-02-22T20:39:16.255Z,-1.50
2019-02-22T20:41:47.768Z,-1.50
2019-02-22T20:44:19.099Z,-1.50
2019-02-22T20:46:50.467Z,-1.60
2019-02-22T20:49:22.264Z,-1.60
2019-02-22T20:51:54.165Z,-1.60
2019-02-22T20:54:25.630Z,-1.70
2019-02-22T20:56:57.002Z,-1.70
2019-02-22T20:59:29.019Z,-1.70
2019-02-22T21:02:01.253Z,-1.70
2019-02-22T21:04:33.091Z,-1.80
2019-02-22T21:07:04.981Z,-1.80
2019-02-22T21:09:36.357Z,-1.80
2019-02-22T21:12:07.878Z,-1.90
2019-02-22T21:14:39.872Z,-1.90
2019-02-22T21:17:13.090Z,-1.90
2019-02-22T21:19:44.529Z,-1.90
2019-02-22T21:22:16.067Z,-2.00
2019-02-22T21:24:48.084Z,-2.00
2019-02-22T21:27:20.337Z,-2.00
2019-02-22T21:29:52.048Z,-2.00
2019-02-22T21:32:24.763Z,-2.10
2019-02-22T21:34:56.272Z,-2.10
2019-02-22T21:37:27.698Z,-2.10
2019-02-22T21:40:00.444Z,-2.10
2019-02-22T21:42:34.913Z,-2.20
2019-02-22T21:45:06.698Z,-2.20
2019-02-22T21:47:41.096Z,-2.20
2019-02-22T21:50:13.180Z,-2.20
2019-02-22T21:52:45.181Z,-2.30
2019-02-22T21:55:16.529Z,-2.30
2019-02-22T21:57:47.939Z,-2.40
2019-02-22T22:00:19.764Z,-2.40
2019-02-22T22:02:52.047Z,-2.40
2019-02-22T22:05:24.991Z,-2.40
2019-02-22T22:07:57.399Z,-2.40
2019-02-22T22:10:30.333Z,-2.40
2019-02-22T22:13:01.832Z,-2.50
2019-02-22T22:15:33.628Z,-2.50
2019-02-22T22:18:05.002Z,-2.50
2019-02-22T22:20:38.283Z,-2.50
2019-02-22T22:23:10.291Z,-2.60
2019-02-22T22:25:41.705Z,-2.60
2019-02-22T22:28:13.526Z,-2.60
2019-02-22T22:30:47.106Z,-2.70
2019-02-22T22:33:18.684Z,-2.70
2019-02-22T22:35:52.189Z,-2.70
2019-02-22T22:38:25.642Z,-2.70
2019-02-22T22:40:58.402Z,-2.70
2019-02-22T22:43:30.327Z,-2.80
2019-02-22T22:46:01.940Z,-2.80
2019-02-22T22:48:35.586Z,-2.80
2019-02-22T22:51:07.539Z,-2.90
2019-02-22T22:53:38.797Z,-2.90
2019-02-22T22:56:11.061Z,-2.90
2019-02-22T22:58:43.651Z,-2.90
2019-02-22T23:01:20.544Z,-2.90
2019-02-22T23:03:52.218Z,-3.00
2019-02-22T23:06:23.789Z,-3.00
2019-02-22T23:08:56.663Z,-3.00
2019-02-22T23:11:28.426Z,-3.00
2019-02-22T23:14:02.243Z,-3.00
2019-02-22T23:16:35.447Z,-3.00
2019-02-22T23:19:08.582Z,-3.00
2019-02-22T23:21:42.716Z,-3.10
2019-02-22T23:24:15.360Z,-3.10
2019-02-22T23:26:47.094Z,-3.10
2019-02-22T23:29:18.917Z,-3.10
2019-02-22T23:31:50.640Z,-3.10
2019-02-22T23:34:22.130Z,-3.10
2019-02-22T23:36:54.618Z,-3.10
2019-02-22T23:39:27.107Z,-3.10
2019-02-22T23:41:59.016Z,-3.20
2019-02-22T23:44:30.668Z,-3.20
2019-02-22T23:47:02.109Z,-3.20
2019-02-22T23:49:33.766Z,-3.20
2019-02-22T23:52:05.257Z,-3.20
2019-02-22T23:54:36.972Z,-3.20
2019-02-22T23:57:11.508Z,-3.20
2019-02-22T23:59:43.590Z,-3.20
